createdAt,value
2023-05-06T00:01:24.405Z,99513.50
2023-05-06T00:04:27.075Z,99510.28
2023-05-06T00:07:29.090Z,99509.44
2023-05-06T00:10:30.946Z,99513.44
2023-05-06T00:13:32.746Z,99509.22
2023-05-06T00:16:34.733Z,99510.38
2023-05-06T00:19:36.626Z,99522.22
2023-05-06T00:22:38.716Z,99526.88
2023-05-06T00:25:40.510Z,99520.28
2023-05-06T00:28:42.405Z,99527.78
2023-05-06T00:31:45.477Z,99529.06
2023-05-06T00:34:47.755Z,99526.69
2023-05-06T00:38:07.883Z,99524.31
2023-05-06T00:41:10.323Z,99528.28
2023-05-06T00:44:12.353Z,99522.56
2023-05-06T00:47:14.530Z,99524.00
2023-05-06T00:50:16.844Z,99519.25
2023-05-06T00:53:23.708Z,99519.53
2023-05-06T00:56:25.628Z,99518.16
2023-05-06T00:59:27.932Z,99516.47
2023-05-06T01:02:43.407Z,99524.50
2023-05-06T01:05:53.392Z,99516.63
2023-05-06T01:09:06.154Z,99527.47
2023-05-06T01:12:17.225Z,99517.19
2023-05-06T01:15:36.111Z,99516.50
2023-05-06T01:18:38.721Z,99516.09
2023-05-06T01:21:43.431Z,99512.88
2023-05-06T01:24:47.111Z,99519.50
2023-05-06T01:27:50.114Z,99521.78
2023-05-06T01:31:01.291Z,99522.91
2023-05-06T01:34:38.247Z,99518.56
2023-05-06T01:37:46.663Z,99524.88
2023-05-06T01:40:54.334Z,99526.72
2023-05-06T01:43:58.380Z,99522.38
2023-05-06T01:47:01.614Z,99527.69
2023-05-06T01:50:03.650Z,99524.34
2023-05-06T01:53:05.584Z,99525.47
2023-05-06T01:56:07.861Z,99523.94
2023-05-06T01:59:09.702Z,99531.25
2023-05-06T02:02:11.614Z,99532.22
2023-05-06T02:05:13.552Z,99531.69
2023-05-06T02:08:21.558Z,99525.66
2023-05-06T02:11:23.509Z,99523.28
2023-05-06T02:14:27.985Z,99526.09
2023-05-06T02:17:30.621Z,99530.59
2023-05-06T02:20:32.469Z,99534.94
2023-05-06T02:23:35.078Z,99538.16
2023-05-06T02:26:36.904Z,99541.66
2023-05-06T02:29:39.240Z,99544.03
2023-05-06T02:32:41.658Z,99541.94
2023-05-06T02:35:43.534Z,99552.59
2023-05-06T02:38:45.467Z,99544.16
2023-05-06T02:41:47.252Z,99551.19
2023-05-06T02:44:49.183Z,99552.56
2023-05-06T02:47:51.119Z,99554.66
2023-05-06T02:50:53.020Z,99563.63
2023-05-06T02:53:54.952Z,99560.38
2023-05-06T02:56:56.867Z,99564.00
2023-05-06T02:59:58.820Z,99563.28
2023-05-06T03:03:01.286Z,99569.56
2023-05-06T03:06:03.307Z,99571.47
2023-05-06T03:09:05.329Z,99577.63
2023-05-06T03:12:07.382Z,99583.91
2023-05-06T03:15:10.191Z,99584.53
2023-05-06T03:18:13.288Z,99582.78
2023-05-06T03:21:15.920Z,99580.03
2023-05-06T03:24:20.351Z,99581.13
2023-05-06T03:27:23.336Z,99577.53
2023-05-06T03:30:29.085Z,99588.16
2023-05-06T03:33:34.262Z,99587.53
2023-05-06T03:36:37.009Z,99590.97
2023-05-06T03:39:39.181Z,99592.56
2023-05-06T03:42:41.310Z,99590.34
2023-05-06T03:45:44.032Z,99595.19
2023-05-06T03:48:46.009Z,99595.22
2023-05-06T03:51:51.152Z,99593.63
2023-05-06T03:54:53.913Z,99603.28
2023-05-06T03:57:56.028Z,99600.50
2023-05-06T04:01:00.957Z,99606.63
2023-05-06T04:04:03.470Z,99604.16
2023-05-06T04:07:06.102Z,99601.47
2023-05-06T04:10:08.625Z,99595.47
2023-05-06T04:13:10.794Z,99599.97
2023-05-06T04:16:17.461Z,99601.78
2023-05-06T04:19:20.668Z,99606.41
2023-05-06T04:22:23.332Z,99607.69
2023-05-06T04:25:25.345Z,99603.41
2023-05-06T04:28:27.307Z,99603.81
2023-05-06T04:31:29.474Z,99611.19
2023-05-06T04:34:37.036Z,99613.56
2023-05-06T04:37:41.467Z,99610.41
2023-05-06T04:40:49.748Z,99606.41
2023-05-06T04:43:51.655Z,99621.25
2023-05-06T04:46:57.827Z,99618.81
2023-05-06T04:50:00.335Z,99611.47
2023-05-06T04:53:03.060Z,99619.56
2023-05-06T04:56:05.564Z,99621.75
2023-05-06T04:59:08.212Z,99621.50
2023-05-06T05:02:10.246Z,99623.47
2023-05-06T05:05:14.339Z,99624.38
2023-05-06T05:08:18.646Z,99625.47
2023-05-06T05:11:20.719Z,99627.91
2023-05-06T05:14:22.613Z,99621.63
2023-05-06T05:17:24.916Z,99625.97
2023-05-06T05:20:27.453Z,99631.00
2023-05-06T05:23:29.325Z,99630.13
2023-05-06T05:26:31.202Z,99631.47
2023-05-06T05:29:34.950Z,99631.16
2023-05-06T05:32:40.619Z,99624.84
2023-05-06T05:35:42.569Z,99623.31
2023-05-06T05:38:45.507Z,99633.69
2023-05-06T05:41:47.538Z,99635.81
2023-05-06T05:44:49.530Z,99633.44
2023-05-06T05:47:54.193Z,99643.28
2023-05-06T05:50:57.476Z,99649.19
2023-05-06T05:53:59.759Z,99641.19
2023-05-06T05:57:03.074Z,99643.72
2023-05-06T06:00:06.818Z,99650.34
2023-05-06T06:03:19.263Z,99648.09
2023-05-06T06:06:21.591Z,99645.22
2023-05-06T06:09:24.609Z,99640.06
2023-05-06T06:12:27.326Z,99648.63
2023-05-06T06:15:29.556Z,99650.34
2023-05-06T06:18:31.518Z,99658.28
2023-05-06T06:21:33.545Z,99654.53
2023-05-06T06:24:36.323Z,99657.66
2023-05-06T06:27:40.398Z,99659.38
2023-05-06T06:30:43.632Z,99659.38
2023-05-06T06:33:45.581Z,99662.91
2023-05-06T06:36:47.829Z,99657.28
2023-05-06T06:39:49.718Z,99665.22
2023-05-06T06:42:51.731Z,99663.97
2023-05-06T06:46:12.428Z,99668.75
2023-05-06T06:49:14.299Z,99668.97
2023-05-06T06:52:16.151Z,99677.09
2023-05-06T06:55:18.129Z,99672.94
2023-05-06T06:58:20.009Z,99682.53
2023-05-06T07:01:22.051Z,99684.44
2023-05-06T07:04:25.805Z,99677.50
2023-05-06T07:07:27.736Z,99685.81
2023-05-06T07:10:29.631Z,99684.22
2023-05-06T07:13:31.434Z,99690.00
2023-05-06T07:16:33.390Z,99693.66
2023-05-06T07:19:35.512Z,99698.81
2023-05-06T07:22:37.568Z,99696.41
2023-05-06T07:25:39.440Z,99693.00
2023-05-06T07:28:41.306Z,99700.91
2023-05-06T07:31:43.396Z,99686.91
2023-05-06T07:34:45.414Z,99690.66
2023-05-06T07:37:47.684Z,99693.59
2023-05-06T07:40:50.146Z,99695.66
2023-05-06T07:43:51.877Z,99696.41
2023-05-06T07:46:54.213Z,99697.41
2023-05-06T07:49:56.434Z,99695.41
2023-05-06T07:52:58.489Z,99696.31
2023-05-06T07:56:02.607Z,99699.38
2023-05-06T07:59:04.500Z,99705.03
2023-05-06T08:02:06.992Z,99709.91
2023-05-06T08:05:09.448Z,99701.13
2023-05-06T08:08:11.570Z,99712.38
2023-05-06T08:11:13.615Z,99705.66
2023-05-06T08:14:15.586Z,99708.63
2023-05-06T08:17:17.617Z,99712.16
2023-05-06T08:20:19.566Z,99712.44
2023-05-06T08:23:21.561Z,99712.09
2023-05-06T08:26:23.431Z,99706.34
2023-05-06T08:29:25.378Z,99712.50
2023-05-06T08:32:27.310Z,99715.88
2023-05-06T08:35:29.339Z,99721.41
2023-05-06T08:38:31.282Z,99712.81
2023-05-06T08:41:35.864Z,99716.34
2023-05-06T08:44:38.314Z,99723.91
2023-05-06T08:47:40.579Z,99726.19
2023-05-06T08:50:43.449Z,99726.38
2023-05-06T08:53:49.250Z,99727.03
2023-05-06T08:56:57.195Z,99731.38
2023-05-06T08:59:59.483Z,99735.06
2023-05-06T09:03:01.902Z,99729.03
2023-05-06T09:06:04.680Z,99728.47
2023-05-06T09:09:06.559Z,99728.09
2023-05-06T09:12:15.078Z,99733.50
2023-05-06T09:15:16.966Z,99737.69
2023-05-06T09:18:18.872Z,99737.88
2023-05-06T09:21:21.046Z,99737.22
2023-05-06T09:24:23.910Z,99731.53
2023-05-06T09:27:27.657Z,99744.63
2023-05-06T09:30:29.573Z,99755.22
2023-05-06T09:33:32.779Z,99758.91
2023-05-06T09:36:34.693Z,99750.03
2023-05-06T09:39:36.644Z,99743.31
2023-05-06T09:42:38.675Z,99756.22
2023-05-06T09:45:43.303Z,99748.50
2023-05-06T09:48:46.667Z,99757.31
2023-05-06T09:51:51.722Z,99753.28
2023-05-06T09:54:54.207Z,99758.19
2023-05-06T09:57:57.019Z,99760.63
2023-05-06T10:00:59.624Z,99773.47
2023-05-06T10:04:05.067Z,99765.13
2023-05-06T10:07:11.662Z,99770.13
2023-05-06T10:10:14.389Z,99770.19
2023-05-06T10:13:17.154Z,99771.97
2023-05-06T10:16:19.772Z,99782.38
2023-05-06T10:19:24.195Z,99777.38
2023-05-06T10:22:41.529Z,99777.19
2023-05-06T10:25:48.078Z,99776.97
2023-05-06T10:29:38.382Z,99784.44
2023-05-06T10:32:43.377Z,99770.25
2023-05-06T10:35:53.145Z,99779.41
2023-05-06T10:38:56.942Z,99773.22
2023-05-06T10:41:58.870Z,99773.63
2023-05-06T10:45:06.208Z,99785.09
2023-05-06T10:48:14.420Z,99781.38
2023-05-06T10:51:16.585Z,99778.41
2023-05-06T10:54:19.624Z,99797.75
2023-05-06T10:57:26.964Z,99782.66
2023-05-06T11:00:35.206Z,99774.38
2023-05-06T11:03:37.630Z,99785.84
2023-05-06T11:06:42.414Z,99796.41
2023-05-06T11:09:58.549Z,99781.47
2023-05-06T11:13:23.706Z,99770.00
2023-05-06T11:16:48.693Z,99776.69
2023-05-06T11:20:10.820Z,99779.00
2023-05-06T11:23:12.861Z,99789.56
2023-05-06T11:26:16.052Z,99793.31
2023-05-06T11:29:19.055Z,99772.66
2023-05-06T11:32:29.133Z,99791.66
2023-05-06T11:35:38.001Z,99783.16
2023-05-06T11:38:44.902Z,99785.75
2023-05-06T11:41:46.920Z,99782.34
2023-05-06T11:44:48.874Z,99788.16
2023-05-06T11:47:54.800Z,99789.06
2023-05-06T11:50:57.057Z,99786.84
2023-05-06T11:54:11.025Z,99790.88
2023-05-06T11:57:13.632Z,99799.41
2023-05-06T12:00:15.722Z,99798.69
2023-05-06T12:03:18.772Z,99797.84
2023-05-06T12:06:32.785Z,99800.34
2023-05-06T12:09:37.072Z,99809.97
2023-05-06T12:12:39.218Z,99809.91
2023-05-06T12:15:41.365Z,99808.41
2023-05-06T12:18:43.969Z,99806.88
2023-05-06T12:21:46.434Z,99806.84
2023-05-06T12:24:49.568Z,99804.38
2023-05-06T12:27:51.573Z,99810.59
2023-05-06T12:30:53.476Z,99819.31
2023-05-06T12:33:58.034Z,99815.81
2023-05-06T12:37:01.106Z,99823.09
2023-05-06T12:40:03.036Z,99813.41
2023-05-06T12:43:04.976Z,99814.84
2023-05-06T12:46:07.964Z,99820.94
2023-05-06T12:49:09.935Z,99824.09
2023-05-06T12:52:11.962Z,99826.28
2023-05-06T12:55:13.850Z,99832.31
2023-05-06T12:58:17.255Z,99831.09
2023-05-06T13:01:22.140Z,99824.22
2023-05-06T13:04:24.050Z,99827.13
2023-05-06T13:07:25.951Z,99830.41
2023-05-06T13:10:27.791Z,99825.31
2023-05-06T13:13:29.665Z,99832.97
2023-05-06T13:16:32.693Z,99844.66
2023-05-06T13:19:35.016Z,99850.13
2023-05-06T13:22:50.731Z,99843.25
2023-05-06T13:26:04.095Z,99862.69
2023-05-06T13:29:06.520Z,99855.34
2023-05-06T13:32:09.120Z,99859.63
2023-05-06T13:35:11.357Z,99857.16
2023-05-06T13:38:13.352Z,99850.75
2023-05-06T13:41:15.533Z,99858.03
2023-05-06T13:44:18.820Z,99860.81
2023-05-06T13:47:20.740Z,99855.38
2023-05-06T13:50:22.582Z,99869.28
2023-05-06T13:53:24.404Z,99868.09
2023-05-06T13:56:26.338Z,99869.63
2023-05-06T13:59:28.221Z,99869.00
2023-05-06T14:02:30.787Z,99872.91
2023-05-06T14:05:32.797Z,99869.97
2023-05-06T14:08:34.689Z,99859.28
2023-05-06T14:11:36.808Z,99863.31
2023-05-06T14:14:38.666Z,99863.00
2023-05-06T14:17:41.061Z,99871.66
2023-05-06T14:20:43.055Z,99870.63
2023-05-06T14:23:44.897Z,99876.06
2023-05-06T14:26:46.767Z,99872.94
2023-05-06T14:29:48.801Z,99876.31
2023-05-06T14:32:50.617Z,99878.75
2023-05-06T14:35:52.894Z,99873.31
2023-05-06T14:38:54.716Z,99876.00
2023-05-06T14:41:56.616Z,99879.25
2023-05-06T14:44:58.490Z,99881.16
2023-05-06T14:48:00.557Z,99877.47
2023-05-06T14:51:02.376Z,99876.06
2023-05-06T14:54:04.374Z,99880.13
2023-05-06T14:57:06.288Z,99881.94
2023-05-06T15:00:10.186Z,99879.34
2023-05-06T15:03:12.207Z,99894.41
2023-05-06T15:06:14.085Z,99892.56
2023-05-06T15:09:16.088Z,99896.09
2023-05-06T15:12:18.070Z,99895.13
2023-05-06T15:15:20.072Z,99900.41
2023-05-06T15:18:21.973Z,99891.41
2023-05-06T15:21:23.827Z,99899.56
2023-05-06T15:24:27.256Z,99904.88
2023-05-06T15:27:31.472Z,99896.16
2023-05-06T15:30:33.318Z,99900.72
2023-05-06T15:33:35.515Z,99913.34
2023-05-06T15:36:38.598Z,99907.66
2023-05-06T15:39:40.534Z,99915.03
2023-05-06T15:42:42.456Z,99910.66
2023-05-06T15:45:44.402Z,99917.38
2023-05-06T15:48:46.390Z,99926.81
2023-05-06T15:51:48.303Z,99925.28
2023-05-06T15:54:51.160Z,99931.00
2023-05-06T15:57:54.656Z,99930.78
2023-05-06T16:00:57.097Z,99928.25
2023-05-06T16:04:07.938Z,99939.31
2023-05-06T16:07:09.975Z,99929.06
2023-05-06T16:10:12.121Z,99926.69
2023-05-06T16:13:14.335Z,99940.25
2023-05-06T16:16:16.323Z,99945.28
2023-05-06T16:19:18.652Z,99948.91
2023-05-06T16:22:20.559Z,99952.56
2023-05-06T16:25:23.179Z,99947.94
2023-05-06T16:28:25.002Z,99958.94
2023-05-06T16:31:26.925Z,99954.56
2023-05-06T16:34:28.748Z,99959.94
2023-05-06T16:37:31.166Z,99974.03
2023-05-06T16:40:42.684Z,99976.88
2023-05-06T16:43:44.477Z,99971.31
2023-05-06T16:46:46.592Z,99979.13
2023-05-06T16:49:48.679Z,99973.84
2023-05-06T16:52:50.619Z,99967.56
2023-05-06T16:55:52.649Z,99968.19
2023-05-06T16:58:54.551Z,99977.00
2023-05-06T17:01:56.444Z,99982.44
2023-05-06T17:04:58.295Z,99991.63
2023-05-06T17:08:00.245Z,100000.59
2023-05-06T17:11:05.320Z,100005.09
2023-05-06T17:14:07.278Z,99999.03
2023-05-06T17:17:09.079Z,100001.50
2023-05-06T17:20:11.531Z,100010.53
2023-05-06T17:23:13.620Z,100021.47
2023-05-06T17:26:17.837Z,100023.31
2023-05-06T17:29:22.192Z,100026.03
2023-05-06T17:32:25.133Z,100022.50
2023-05-06T17:35:26.920Z,100041.59
2023-05-06T17:38:28.833Z,100050.06
2023-05-06T17:41:31.654Z,100047.25
2023-05-06T17:44:35.339Z,100052.06
2023-05-06T17:47:37.203Z,100050.94
2023-05-06T17:50:39.130Z,100045.31
2023-05-06T17:53:40.991Z,100048.44
2023-05-06T17:56:49.219Z,100046.19
2023-05-06T17:59:51.076Z,100059.16
2023-05-06T18:02:53.122Z,100061.97
2023-05-06T18:05:55.099Z,100075.50
2023-05-06T18:08:57.010Z,100081.00
2023-05-06T18:11:59.112Z,100078.59
2023-05-06T18:15:01.504Z,100080.00
2023-05-06T18:18:03.722Z,100080.72
2023-05-06T18:21:05.700Z,100081.25
2023-05-06T18:24:15.907Z,100076.34
2023-05-06T18:27:18.078Z,100083.94
2023-05-06T18:30:20.012Z,100081.69
2023-05-06T18:33:21.969Z,100085.47
2023-05-06T18:36:24.204Z,100079.69
2023-05-06T18:39:27.309Z,100091.78
2023-05-06T18:42:29.284Z,100087.84
2023-05-06T18:45:31.176Z,100091.63
2023-05-06T18:48:33.063Z,100091.88
2023-05-06T18:51:36.243Z,100089.22
2023-05-06T18:54:39.663Z,100092.28
2023-05-06T18:57:41.877Z,100092.69
2023-05-06T19:00:44.442Z,100088.03
2023-05-06T19:03:46.974Z,100099.25
2023-05-06T19:06:48.828Z,100109.50
2023-05-06T19:09:50.720Z,100112.69
2023-05-06T19:12:52.701Z,100113.22
2023-05-06T19:15:54.783Z,100117.41
2023-05-06T19:18:56.703Z,100118.91
2023-05-06T19:21:59.866Z,100113.84
2023-05-06T19:25:01.765Z,100114.50
2023-05-06T19:28:05.026Z,100120.22
2023-05-06T19:31:11.425Z,100111.19
2023-05-06T19:34:13.497Z,100110.72
2023-05-06T19:37:15.356Z,100105.44
2023-05-06T19:40:19.007Z,100106.56
2023-05-06T19:43:23.171Z,100109.50
2023-05-06T19:46:25.099Z,100123.34
2023-05-06T19:49:27.088Z,100124.72
2023-05-06T19:52:31.260Z,100115.53
2023-05-06T19:55:33.165Z,100122.22
2023-05-06T19:58:35.075Z,100122.84
2023-05-06T20:01:36.945Z,100124.09
2023-05-06T20:04:38.835Z,100121.94
2023-05-06T20:07:41.464Z,100122.19
2023-05-06T20:10:43.571Z,100127.28
2023-05-06T20:13:45.470Z,100126.56
2023-05-06T20:16:47.520Z,100133.13
2023-05-06T20:19:49.896Z,100136.78
2023-05-06T20:22:51.711Z,100134.59
2023-05-06T20:25:53.574Z,100132.19
2023-05-06T20:28:55.511Z,100132.69
2023-05-06T20:31:57.518Z,100135.00
2023-05-06T20:34:59.446Z,100128.34
2023-05-06T20:38:02.041Z,100134.78
2023-05-06T20:41:03.968Z,100135.25
2023-05-06T20:44:05.926Z,100137.19
2023-05-06T20:47:12.417Z,100139.16
2023-05-06T20:50:17.351Z,100138.41
2023-05-06T20:53:19.367Z,100144.00
2023-05-06T20:56:24.925Z,100154.28
2023-05-06T20:59:29.407Z,100156.47
2023-05-06T21:02:32.985Z,100152.59
2023-05-06T21:05:36.280Z,100160.09
2023-05-06T21:08:38.270Z,100160.69
2023-05-06T21:11:40.068Z,100159.13
2023-05-06T21:14:41.979Z,100158.63
2023-05-06T21:17:43.876Z,100155.59
2023-05-06T21:20:46.062Z,100157.75
2023-05-06T21:23:48.126Z,100157.03
2023-05-06T21:26:51.355Z,100154.84
2023-05-06T21:29:53.339Z,100148.19
2023-05-06T21:32:55.269Z,100144.91
2023-05-06T21:35:57.188Z,100139.19
2023-05-06T21:39:08.438Z,100142.81
2023-05-06T21:42:10.353Z,100133.47
2023-05-06T21:45:12.721Z,100137.84
2023-05-06T21:48:14.709Z,100131.56
2023-05-06T21:51:16.672Z,100132.75
2023-05-06T21:54:18.480Z,100134.78
2023-05-06T21:57:20.406Z,100130.78
2023-05-06T22:00:23.045Z,100120.63
2023-05-06T22:03:25.252Z,100119.38
2023-05-06T22:06:27.226Z,100107.28
2023-05-06T22:09:29.092Z,100117.06
2023-05-06T22:12:31.998Z,100108.25
2023-05-06T22:15:33.878Z,100123.25
2023-05-06T22:18:36.108Z,100118.03
2023-05-06T22:21:38.057Z,100119.13
2023-05-06T22:24:39.910Z,100123.81
2023-05-06T22:27:41.776Z,100120.88
2023-05-06T22:30:43.716Z,100114.00
2023-05-06T22:33:47.615Z,100114.97
2023-05-06T22:36:49.568Z,100116.88
2023-05-06T22:39:53.047Z,100125.81
2023-05-06T22:42:55.835Z,100122.44
2023-05-06T22:45:57.700Z,100119.03
2023-05-06T22:49:00.190Z,100118.44
2023-05-06T22:52:02.356Z,100115.28
2023-05-06T22:55:05.966Z,100113.81
2023-05-06T22:58:07.824Z,100115.41
2023-05-06T23:01:09.847Z,100114.22
2023-05-06T23:04:11.774Z,100111.53
2023-05-06T23:07:13.977Z,100122.91
2023-05-06T23:10:15.864Z,100113.34
2023-05-06T23:13:17.821Z,100104.53
2023-05-06T23:16:19.714Z,100101.88
2023-05-06T23:19:21.880Z,100116.00
2023-05-06T23:22:23.805Z,100112.63
2023-05-06T23:25:27.031Z,100108.88
2023-05-06T23:28:29.209Z,100101.88
2023-05-06T23:31:31.136Z,100099.22
2023-05-06T23:34:33.049Z,100105.28
2023-05-06T23:37:35.053Z,100106.59
2023-05-06T23:40:36.872Z,100108.28
2023-05-06T23:43:38.784Z,100107.44
2023-05-06T23:46:40.653Z,100104.91
2023-05-06T23:49:42.634Z,100106.72
2023-05-06T23:52:44.580Z,100107.66
2023-05-06T23:55:46.863Z,100099.22
2023-05-06T23:58:48.863Z,100102.84
